Historyczne dane pomiarowe

Dodano dane terminowe – wersja testowa.

Dane z okresu 1951-2019

Wersja bazy: 1.34 [2019-03-16, lista zmian], aktualizacja planowana na 2019-04-15

Dane meteo z obszaru Polski uzyskane na podstawie danych udostępnionych przez Instytut Meteorologii i Gospodarki Wodnej – Państwowy Instytut Badawczy.

 

Wybierz Datę:    

       

TemperaturaWilgotnośćWiatrCiśnienieOpadyŚniegCzas trwania zjawisk
 Stacja t tx tn tng RH VA  wxwx mslp ppp RRR   cm mm wxwxwxwxwxwxwx
2019-06-19 21.3 28.0 15.0--- 5.0 1.7---- 0.2------------
2019-06-18 18.1 23.5 10.1--- 5.7 1.3---- 0.0------------
2019-06-17 18.2 21.6 15.6--- 6.3 1.3---- 0.2------------
2019-06-16 22.5 28.6 19.0--- 3.7 2.7---- 2.0------------
2019-06-15 25.8 32.6 18.3--- 3.7 1.7---- 0.0------------
2019-06-14 23.5 28.6 18.8--- 4.3 2.3---- 0.0------------
2019-06-13 25.0 31.7 18.2--- 2.3 2.0---- 0.0------------
2019-06-12 25.1 30.8 19.1--- 1.3 3.3---- 0.0------------
2019-06-11 24.6 29.9 18.1--- 1.3 4.0---- 0.0------------
2019-06-10 23.3 29.7 16.5--- 1.0 3.7---- 0.0------------
2019-06-09 18.9 24.5 11.1--- 1.0 2.0---- 0.0------------
2019-06-08 20.7 28.4 14.1--- 4.3 1.0---- 14.4------------
2019-06-07 19.9 26.1 12.3--- 6.0 0.7---- 0.0------------
2019-06-06 20.1 25.0 14.1--- 3.7 4.7---- 6.1------------
2019-06-05 19.3 25.0 12.1--- 4.3 3.0---- 0.0------------
2019-06-04 20.7 26.7 12.3--- 3.0 1.7---- 0.0------------
2019-06-03 19.9 25.7 11.2--- 2.0 1.0---- 0.0------------
2019-06-02 18.9 25.1 10.3--- 3.0 1.7---- 0.0------------
2019-06-01 17.0 23.2 8.0--- 5.0 1.0---- 0.0------------
2019-05-31 14.6 21.0 7.7--- 4.3 0.7---- 0.0------------
2019-05-30 9.6 11.6 7.7--- 8.0 2.0---- 8.1------------
2019-05-29 13.0 17.7 10.2--- 8.0 2.7---- 0.2------------
2019-05-28 17.6 22.4 11.7--- 7.0 4.3---- 0.2------------
2019-05-27 19.2 24.7 13.1--- 6.3 2.0---- 1.9------------
2019-05-26 16.8 23.0 9.0--- 5.7 2.0---- 0.0------------
2019-05-25 16.1 21.5 10.9--- 5.0 2.0---- 0.1------------
2019-05-24 11.4 12.9 9.6--- 8.0 2.0---- 7.2------------
2019-05-23 12.2 13.5 10.6--- 8.0 3.7---- 38.7------------
2019-05-22 13.2 15.7 10.8--- 8.0 2.3---- 21.8------------
2019-05-21 13.5 19.3 8.0--- 8.0 2.3---- 42.7------------
2019-05-20 17.6 21.7 12.0--- 6.7 4.0---- 0.0------------
2019-05-19 15.5 23.3 7.8--- 5.0 1.7---- 0.3------------
2019-05-18 17.4 24.3 8.8--- 6.0----- 0.0------------
2019-05-17 15.3 19.8 10.7--- 6.7----- 0.0------------
2019-05-16 12.2 17.2 8.0--- 7.3----- 1.9------------
2019-05-15 8.2 10.6 5.2--- 8.0----- 7.2------------
2019-05-14 5.5 7.8 3.1--- 8.0----- 14.0------------
2019-05-13 7.4 9.4 5.9--- 8.0----- 8.6------------
2019-05-12 13.0 20.6 8.2--- 7.3----- 10.4------------
2019-05-11 14.2 19.6 8.9--- 5.7----- 0.0------------
2019-05-10 11.5 17.6 6.7--- 6.0----- 5.0------------
2019-05-09 9.6 12.5 6.2--- 8.0----- 4.0------------
2019-05-08 9.2 15.6 0.2--- 2.7----- 0.0------------
2019-05-07 8.2 12.3 4.2--- 7.0----- 0.0------------
2019-05-06 6.5 9.1 3.7--- 8.0----- 0.0------------
2019-05-05 6.4 12.4 3.1--- 8.0 3.0---- 6.7------------
2019-05-04 9.8 15.4 3.6--- 6.0 2.0---- 0.4------------
2019-05-03 10.7 16.5 7.3--- 8.0 2.0---- 0.8------------
2019-05-02 13.9 19.1 8.1--- 4.3 4.3---- 0.0------------
2019-05-01 11.7 16.5 6.3--- 5.0 3.3---- 2.0------------
2019-04-30 10.2 11.3 8.7--- 8.0 2.0---- 6.3------------
2019-04-29 9.5 11.1 7.7--- 8.0 1.7---- 13.3------------
2019-04-28 9.6 11.9 8.0--- 8.0 4.0---- 32.6------------
2019-04-27 14.5 21.9 11.2--- 8.0 3.0---- 17.5------------
2019-04-26 19.4 27.2 11.3--- 6.3 2.7---- 0.0------------
2019-04-25 18.6 25.0 12.0--- 4.7 3.7---- 0.0------------
2019-04-24 13.6 16.6 10.1--- 6.7 6.3---- 0.0------------
2019-04-23 11.7 17.0 6.2--- 6.0 5.7---- 0.0------------
2019-04-22 9.9 15.1 5.1--- 6.3 3.0---- 7.0------------
2019-04-21 10.0 17.0 0.1--- 4.7 2.3---- 0.6------------
150.8 ms

 

Źródłem pochodzenia danych jest Instytut Meteorologii i Gospodarki Wodnej – Państwowy Instytut Badawczy. Dane Instytutu Meteorologii i Gospodarki Wodnej – Państwowego Instytutu Badawczego zostały przetworzone.

Dane źródłowe można odnaleźć na stronie https://dane.imgw.pl